Time;durP1;ratioP1;P1;durP2;ratioP2;P2;SDS_P1;SDS_P2;PMS_P1;PMS_P2;Temp;Humidity;BMP_temperature;BMP_pressure;BME280_temperature;BME280_humidity;BME280_pressure;Samples;Min_cycle;Max_cycle;Signal;HPM_P1;HPM_P2
2023/04/07 00:00:22;;;;;;;8.43;3.17;;;;;;;10.12;51.20;100218.94;5056076;28;20116;-64
2023/04/07 00:02:48;;;;;;;8.32;3.13;;;;;;;10.08;51.33;100222.47;5058026;28;20032;-65
2023/04/07 00:05:14;;;;;;;8.90;3.20;;;;;;;10.03;51.31;100219.84;5057571;28;20051;-64
2023/04/07 00:07:40;;;;;;;10.90;3.17;;;;;;;9.98;51.74;100222.47;5057635;28;20025;-65
2023/04/07 00:10:07;;;;;;;13.03;4.23;;;;;;;9.94;51.62;100220.72;5039406;28;20099;-65
2023/04/07 00:12:32;;;;;;;12.90;4.30;;;;;;;9.88;51.84;100216.34;5037711;28;20048;-64
2023/04/07 00:14:58;;;;;;;16.20;4.53;;;;;;;9.86;51.96;100219.88;5037843;28;20444;-65
2023/04/07 00:17:23;;;;;;;17.40;6.30;;;;;;;9.82;51.86;100212.88;5037751;28;20053;-65
2023/04/07 00:19:49;;;;;;;12.87;4.03;;;;;;;9.79;52.07;100210.25;5037665;28;20025;-65
2023/04/07 00:22:14;;;;;;;12.80;4.10;;;;;;;9.71;52.29;100208.50;5037789;28;20033;-65
2023/04/07 00:24:40;;;;;;;11.70;3.85;;;;;;;9.67;52.21;100213.78;5036023;28;20029;-65
2023/04/07 00:27:05;;;;;;;9.37;3.47;;;;;;;9.64;52.33;100212.03;5037739;28;20037;-65
2023/04/07 00:29:31;;;;;;;8.03;2.73;;;;;;;9.62;52.51;100213.78;5035894;28;20055;-65
2023/04/07 00:31:56;;;;;;;9.77;3.28;;;;;;;9.57;52.74;100215.53;5037599;28;20064;-65
2023/04/07 00:34:21;;;;;;;10.13;3.20;;;;;;;9.53;52.87;100214.66;5037424;28;20037;-65
2023/04/07 00:36:50;;;;;;;7.73;2.67;;;;;;;9.48;52.67;100209.38;5048570;28;20029;-65
2023/04/07 00:39:17;;;;;;;7.30;2.75;;;;;;;9.46;52.80;100208.53;5056638;28;20025;-65
2023/04/07 00:41:44;;;;;;;9.70;2.95;;;;;;;9.41;52.69;100199.75;5047701;28;20037;-65
2023/04/07 00:44:09;;;;;;;8.13;2.57;;;;;;;9.38;52.89;100198.88;5037183;28;20033;-65
2023/04/07 00:46:34;;;;;;;9.17;2.93;;;;;;;9.34;52.87;100198.88;5036121;28;20044;-65
2023/04/07 00:49:00;;;;;;;17.40;5.47;;;;;;;9.32;52.92;100190.13;5037245;28;20327;-65
2023/04/07 00:51:25;;;;;;;26.33;7.60;;;;;;;9.33;52.94;100188.38;5037043;28;20036;-64
2023/04/07 00:53:51;;;;;;;28.77;9.73;;;;;;;9.31;52.83;100185.75;5036637;28;20033;-65
2023/04/07 00:56:16;;;;;;;27.55;8.73;;;;;;;9.30;53.07;100185.78;5042536;28;20474;-65
2023/04/07 00:58:42;;;;;;;16.30;4.53;;;;;;;9.25;53.05;100182.25;5036853;28;20064;-64
2023/04/07 01:01:14;;;;;;;11.87;4.00;;;;;;;9.16;53.23;100186.63;5037074;28;20026;-65
2023/04/07 01:03:51;;;;;;;15.25;5.65;;;;;;;9.04;53.96;100181.34;5036804;28;20022;-65
2023/04/07 01:06:21;;;;;;;16.60;5.95;;;;;;;8.95;54.30;100183.97;5036814;28;20034;-64
2023/04/07 01:08:53;;;;;;;17.17;5.20;;;;;;;8.88;53.70;100177.84;5036675;28;20039;-65
2023/04/07 01:11:28;;;;;;;8.03;3.00;;;;;;;8.85;54.42;100172.59;5036876;28;20045;-64
2023/04/07 01:13:53;;;;;;;8.57;3.00;;;;;;;8.80;54.22;100177.84;5036986;28;20040;-65
2023/04/07 01:16:26;;;;;;;7.68;2.58;;;;;;;8.75;54.53;100174.31;5036780;28;20661;-64
2023/04/07 01:18:54;;;;;;;6.40;2.40;;;;;;;8.71;54.19;100169.94;5036720;28;20029;-65
2023/04/07 01:21:24;;;;;;;7.32;2.35;;;;;;;8.66;54.18;100166.44;5036524;28;20469;-64
2023/04/07 01:24:08;;;;;;;6.03;2.17;;;;;;;8.65;54.59;100164.69;5036609;28;20037;-64
2023/04/07 01:26:34;;;;;;;8.55;2.22;;;;;;;8.60;54.33;100155.06;5036778;28;20017;-65
2023/04/07 01:29:10;;;;;;;7.00;2.63;;;;;;;8.63;54.22;100161.19;5036223;28;20021;-65
2023/04/07 01:31:39;;;;;;;5.47;1.93;;;;;;;8.60;54.44;100162.94;5036212;28;20052;-65
2023/04/07 01:34:07;;;;;;;5.75;2.25;;;;;;;8.54;54.17;100159.41;5036469;28;20456;-64
2023/04/07 01:36:35;;;;;;;8.63;2.08;;;;;;;8.46;54.53;100159.34;5045596;28;20052;-65
2023/04/07 01:39:01;;;;;;;7.07;2.10;;;;;;;8.42;54.83;100160.22;5055837;28;20025;-63
2023/04/07 01:41:28;;;;;;;6.80;2.42;;;;;;;8.38;54.61;100159.31;5048541;28;20031;-63
2023/04/07 01:43:55;;;;;;;6.67;2.40;;;;;;;8.40;54.57;100154.09;5036178;28;20454;-63
2023/04/07 01:46:21;;;;;;;6.80;2.60;;;;;;;8.41;54.62;100161.09;5036223;28;20060;-66
2023/04/07 01:48:47;;;;;;;11.10;3.15;;;;;;;8.41;55.00;100153.22;5036064;28;20030;-63
2023/04/07 01:51:17;;;;;;;11.10;3.50;;;;;;;8.42;54.65;100153.19;5038157;28;20029;-63
2023/04/07 01:53:44;;;;;;;10.25;3.63;;;;;;;8.40;54.34;100146.22;5056582;28;20029;-63
2023/04/07 01:56:10;;;;;;;10.63;3.70;;;;;;;8.37;54.29;100149.69;5053702;28;20025;-64
2023/04/07 01:58:36;;;;;;;10.73;3.33;;;;;;;8.33;54.77;100140.94;5040297;28;20048;-66
2023/04/07 02:01:01;;;;;;;6.95;2.53;;;;;;;8.31;54.52;100153.16;5050373;28;20487;-65
2023/04/07 02:03:32;;;;;;;6.10;2.40;;;;;;;8.30;54.65;100148.78;5060148;28;20032;-65
2023/04/07 02:06:07;;;;;;;6.13;2.10;;;;;;;8.27;55.28;100154.03;5060418;28;20485;-63
2023/04/07 02:08:35;;;;;;;6.25;2.10;;;;;;;8.25;55.02;100150.53;5053526;28;20022;-64
2023/04/07 02:11:02;;;;;;;6.30;1.80;;;;;;;8.21;55.07;100146.16;5039992;28;20041;-64
2023/04/07 02:13:29;;;;;;;9.53;2.30;;;;;;;8.18;54.98;100140.88;5040102;28;20037;-65
2023/04/07 02:15:56;;;;;;;5.82;1.80;;;;;;;8.13;55.17;100140.00;5040244;28;20105;-65
2023/04/07 02:18:24;;;;;;;5.65;1.83;;;;;;;8.12;54.72;100146.13;5039877;28;20036;-66
2023/04/07 02:20:51;;;;;;;6.70;2.13;;;;;;;8.10;54.84;100140.84;5039932;28;20033;-65
2023/04/07 02:23:17;;;;;;;6.88;2.58;;;;;;;8.07;54.97;100137.34;5039860;28;20037;-66
2023/04/07 02:25:42;;;;;;;7.73;2.63;;;;;;;8.01;55.14;100136.44;5039635;28;20393;-65
2023/04/07 02:28:08;;;;;;;7.37;2.57;;;;;;;7.96;55.61;100137.31;5040015;28;20405;-65
2023/04/07 02:30:35;;;;;;;7.57;2.60;;;;;;;7.94;55.02;100139.03;5038458;28;20351;-66
2023/04/07 02:33:01;;;;;;;11.05;2.90;;;;;;;7.88;55.29;100139.91;5039903;28;20079;-66
2023/04/07 02:35:26;;;;;;;8.13;2.40;;;;;;;7.83;55.61;100138.97;5039959;28;20513;-65
2023/04/07 02:37:52;;;;;;;6.57;2.20;;;;;;;7.78;55.66;100133.72;5058167;28;20076;-65
2023/04/07 02:40:17;;;;;;;7.27;2.60;;;;;;;7.75;56.71;100138.97;5059511;28;20021;-65
2023/04/07 02:42:43;;;;;;;6.93;2.35;;;;;;;7.66;56.55;100134.53;5041746;28;20375;-65
2023/04/07 02:45:09;;;;;;;8.00;2.47;;;;;;;7.63;56.30;100131.00;5039615;28;20052;-66
2023/04/07 02:47:35;;;;;;;15.63;3.72;;;;;;;7.63;56.35;100133.63;5044500;28;20059;-65
2023/04/07 02:50:01;;;;;;;8.90;2.60;;;;;;;7.61;56.57;100131.03;5059548;28;20082;-65
2023/04/07 02:52:27;;;;;;;6.47;2.20;;;;;;;7.54;56.81;100127.47;5059382;28;20025;-65
2023/04/07 02:54:52;;;;;;;7.53;2.40;;;;;;;7.48;56.83;100122.22;5059260;28;20021;-65
2023/04/07 02:57:18;;;;;;;7.77;2.60;;;;;;;7.47;56.90;100123.94;5044737;28;20792;-65
2023/04/07 02:59:43;;;;;;;9.13;3.83;;;;;;;7.46;56.81;100122.19;5039222;28;20021;-65
2023/04/07 03:02:08;;;;;;;9.07;3.30;;;;;;;7.43;56.90;100124.78;5037921;28;20100;-65
2023/04/07 03:04:34;;;;;;;9.47;3.20;;;;;;;7.39;56.89;100125.63;5039315;28;20026;-66
2023/04/07 03:07:00;;;;;;;9.70;3.07;;;;;;;7.34;57.61;100122.09;5037860;28;20272;-65
2023/04/07 03:09:26;;;;;;;7.75;2.60;;;;;;;7.28;57.66;100127.28;5038676;28;20051;-65
2023/04/07 03:11:51;;;;;;;8.17;2.60;;;;;;;7.26;57.05;100129.03;5038966;28;20502;-65
2023/04/07 03:14:16;;;;;;;10.50;3.27;;;;;;;7.28;57.15;100127.28;5039201;28;20469;-65
2023/04/07 03:16:42;;;;;;;11.98;4.03;;;;;;;7.32;57.28;100118.59;5039016;28;20025;-65
2023/04/07 03:19:08;;;;;;;11.23;4.20;;;;;;;7.34;57.23;100119.47;5039001;28;20445;-66
2023/04/07 03:21:36;;;;;;;9.48;3.92;;;;;;;7.35;57.43;100118.59;5037263;28;20018;-66
2023/04/07 03:24:01;;;;;;;14.03;3.77;;;;;;;7.34;57.05;100114.22;5070495;28;20108;-65
2023/04/07 03:26:26;;;;;;;11.68;3.28;;;;;;;7.33;57.45;100122.94;5038786;28;20049;-66
2023/04/07 03:28:52;;;;;;;8.67;3.27;;;;;;;7.30;57.38;100125.56;5038609;28;20017;-65
2023/04/07 03:31:17;;;;;;;10.07;3.20;;;;;;;7.30;56.88;100115.09;5038360;28;20080;-65
2023/04/07 03:33:43;;;;;;;11.17;3.57;;;;;;;7.28;57.43;100116.81;5038676;28;20521;-65
2023/04/07 03:36:08;;;;;;;9.03;3.33;;;;;;;7.22;57.35;100116.78;5044020;28;20029;-65
2023/04/07 03:38:34;;;;;;;9.25;3.30;;;;;;;7.13;57.50;100115.84;5058258;28;20023;-65
2023/04/07 03:40:59;;;;;;;9.00;2.87;;;;;;;7.10;58.00;100114.94;5053351;28;20033;-66
2023/04/07 03:43:25;;;;;;;7.60;2.90;;;;;;;7.09;57.68;100106.19;5038434;28;20059;-65
2023/04/07 03:45:52;;;;;;;7.60;3.10;;;;;;;7.10;57.84;100104.47;5056972;28;20362;-66
2023/04/07 03:48:18;;;;;;;9.23;3.05;;;;;;;7.10;57.89;100107.09;5058559;28;20480;-65
2023/04/07 03:50:45;;;;;;;9.40;3.17;;;;;;;7.08;57.87;100106.19;5058408;28;20040;-65
2023/04/07 03:53:12;;;;;;;10.73;2.63;;;;;;;7.04;57.90;100102.69;5058222;28;20393;-65
2023/04/07 03:55:38;;;;;;;8.82;2.92;;;;;;;7.00;58.16;100098.28;5056969;28;20035;-66
2023/04/07 03:58:04;;;;;;;8.13;2.50;;;;;;;6.93;58.76;100101.72;5038306;28;20025;-66
2023/04/07 04:00:31;;;;;;;7.57;2.50;;;;;;;6.89;58.26;100098.19;5038338;28;20040;-65
2023/04/07 04:02:57;;;;;;;7.83;2.63;;;;;;;6.80;58.96;100092.91;5038322;28;20025;-65
2023/04/07 04:05:22;;;;;;;8.30;2.38;;;;;;;6.73;58.93;100102.44;5038263;28;20104;-65
2023/04/07 04:07:50;;;;;;;6.83;2.30;;;;;;;6.72;58.84;100100.69;5038168;28;20104;-65
2023/04/07 04:10:15;;;;;;;6.22;2.42;;;;;;;6.71;59.67;100098.91;5037663;28;20049;-65
2023/04/07 04:12:40;;;;;;;7.30;2.80;;;;;;;6.69;59.67;100095.41;5038282;28;20036;-65
2023/04/07 04:15:06;;;;;;;5.13;2.10;;;;;;;6.70;58.90;100091.94;5037644;28;20029;-65
2023/04/07 04:17:32;;;;;;;6.22;2.17;;;;;;;6.70;58.98;100094.56;5037831;28;20389;-65
2023/04/07 04:19:57;;;;;;;6.13;2.30;;;;;;;6.68;59.64;100094.53;5037916;28;20022;-66
2023/04/07 04:22:22;;;;;;;6.70;2.30;;;;;;;6.64;58.93;100097.13;5038175;28;20021;-65
2023/04/07 04:24:48;;;;;;;6.50;2.33;;;;;;;6.58;59.20;100098.78;5036397;28;20029;-65
2023/04/07 04:27:13;;;;;;;7.65;2.22;;;;;;;6.50;60.15;100090.00;5037935;28;20031;-65
2023/04/07 04:29:39;;;;;;;9.00;2.37;;;;;;;6.44;60.13;100089.94;5037511;28;20397;-65
2023/04/07 04:32:04;;;;;;;11.23;3.13;;;;;;;6.40;60.11;100088.16;5037819;28;20021;-65
2023/04/07 04:34:30;;;;;;;7.90;2.60;;;;;;;6.34;60.44;100085.47;5037484;28;20025;-65
2023/04/07 04:36:55;;;;;;;6.97;2.30;;;;;;;6.29;60.31;100080.22;5050074;28;20035;-65
2023/04/07 04:39:21;;;;;;;7.97;2.30;;;;;;;6.26;60.78;100083.66;5052567;28;20100;-66
2023/04/07 04:41:46;;;;;;;7.53;2.43;;;;;;;6.30;60.41;100082.81;5039254;28;20044;-65
2023/04/07 04:44:11;;;;;;;9.00;3.20;;;;;;;6.35;59.67;100090.72;5037464;28;20108;-65
2023/04/07 04:46:37;;;;;;;11.67;3.17;;;;;;;6.32;59.98;100086.34;5036416;28;20025;-65
2023/04/07 04:49:02;;;;;;;10.67;2.90;;;;;;;6.31;60.40;100075.88;5037488;28;20310;-65
2023/04/07 04:51:28;;;;;;;11.10;2.93;;;;;;;6.30;60.00;100076.72;5037460;28;20400;-65
2023/04/07 04:53:53;;;;;;;9.75;3.10;;;;;;;6.27;60.19;100082.81;5037071;28;20075;-65
2023/04/07 04:56:20;;;;;;;8.70;2.60;;;;;;;6.21;61.10;100082.75;5037666;28;20382;-65
2023/04/07 04:58:45;;;;;;;9.63;2.63;;;;;;;6.14;61.01;100086.13;5037069;28;20498;-65
2023/04/07 05:01:12;;;;;;;8.03;2.33;;;;;;;6.08;60.62;100075.59;5037606;28;20115;-65
2023/04/07 05:03:37;;;;;;;6.60;2.13;;;;;;;6.03;60.55;100081.66;5037119;28;20021;-65
2023/04/07 05:06:03;;;;;;;8.57;2.23;;;;;;;6.03;61.18;100089.50;5037049;28;20477;-65
2023/04/07 05:08:28;;;;;;;9.80;2.25;;;;;;;6.05;60.40;100088.66;5036697;28;20022;-65
2023/04/07 05:10:54;;;;;;;7.10;2.30;;;;;;;6.02;61.19;100092.97;5037213;28;20053;-65
2023/04/07 05:13:20;;;;;;;11.68;3.47;;;;;;;5.98;61.04;100095.50;5037006;28;20089;-65
2023/04/07 05:15:46;;;;;;;9.73;3.40;;;;;;;5.95;60.67;100096.38;5037274;28;20033;-65
2023/04/07 05:18:11;;;;;;;12.95;4.07;;;;;;;5.93;61.13;100098.09;5036806;28;20029;-65
2023/04/07 05:20:37;;;;;;;14.60;4.30;;;;;;;5.91;61.01;100105.03;5037041;28;20025;-65
2023/04/07 05:23:02;;;;;;;12.67;4.37;;;;;;;5.91;60.87;100106.75;5068758;28;20032;-65
2023/04/07 05:25:28;;;;;;;13.57;4.45;;;;;;;5.94;61.26;100107.69;5036111;28;20048;-65
2023/04/07 05:27:53;;;;;;;10.00;3.17;;;;;;;5.99;60.82;100115.56;5036740;28;20100;-65
2023/04/07 05:30:19;;;;;;;9.33;3.37;;;;;;;6.02;60.55;100129.59;5036904;28;20026;-65
2023/04/07 05:32:44;;;;;;;11.43;3.63;;;;;;;6.02;61.03;100124.34;5036983;28;20025;-65
2023/04/07 05:35:10;;;;;;;14.60;5.30;;;;;;;5.98;60.38;100122.53;5035532;28;20013;-65
2023/04/07 05:37:35;;;;;;;14.33;4.80;;;;;;;5.98;60.84;100124.25;5054212;28;20025;-65
2023/04/07 05:40:01;;;;;;;28.83;9.10;;;;;;;5.99;60.91;100126.91;5056566;28;20028;-65
2023/04/07 05:42:26;;;;;;;20.67;6.90;;;;;;;6.00;61.00;100133.88;5041069;28;20698;-65
2023/04/07 05:44:51;;;;;;;23.60;8.33;;;;;;;5.99;60.51;100131.22;5035612;28;20028;-65
2023/04/07 05:47:17;;;;;;;22.47;7.17;;;;;;;6.00;60.29;100135.59;5036592;28;20033;-65
2023/04/07 05:49:45;;;;;;;13.20;5.43;;;;;;;6.01;60.71;100132.16;5036637;28;20035;-65
2023/04/07 05:52:13;;;;;;;16.30;6.10;;;;;;;6.03;61.07;100131.34;5036321;28;20025;-65
2023/04/07 05:54:39;;;;;;;15.85;4.85;;;;;;;6.06;60.22;100130.50;5036340;28;20025;-65
2023/04/07 05:57:06;;;;;;;13.88;4.72;;;;;;;6.18;60.44;100133.25;5035378;28;20087;-65
2023/04/07 05:59:32;;;;;;;14.75;4.18;;;;;;;6.42;59.78;100133.53;5036389;28;20037;-65
2023/04/07 06:01:57;;;;;;;12.80;4.83;;;;;;;6.59;59.25;100136.31;5036444;28;20021;-65
2023/04/07 06:04:23;;;;;;;17.42;6.22;;;;;;;6.70;58.46;100133.81;5036689;28;20025;-65
2023/04/07 06:06:48;;;;;;;16.23;6.70;;;;;;;6.83;58.72;100129.56;5036571;28;20032;-65
2023/04/07 06:09:13;;;;;;;15.07;6.00;;;;;;;7.00;58.08;100129.69;5036095;28;20160;-65
2023/04/07 06:11:39;;;;;;;13.37;5.07;;;;;;;7.16;57.79;100134.22;5036359;28;20052;-65
2023/04/07 06:14:04;;;;;;;12.13;3.92;;;;;;;7.45;57.27;100140.50;5036647;28;20123;-65
2023/04/07 06:16:30;;;;;;;10.73;3.43;;;;;;;7.76;56.96;100133.72;5036308;28;20396;-65
2023/04/07 06:18:55;;;;;;;6.80;2.43;;;;;;;8.08;56.07;100139.09;5036497;28;20029;-65
2023/04/07 06:21:21;;;;;;;6.80;2.17;;;;;;;8.30;55.57;100142.69;5036251;28;20021;-65
2023/04/07 06:23:47;;;;;;;10.27;2.63;;;;;;;8.48;55.25;100141.84;5036035;28;20390;-65
2023/04/07 06:26:13;;;;;;;12.20;2.67;;;;;;;8.59;55.05;100141.91;5036563;28;20035;-65
2023/04/07 06:28:39;;;;;;;9.20;2.37;;;;;;;8.78;55.03;100139.31;5034932;28;20029;-65
2023/04/07 06:31:05;;;;;;;8.93;2.20;;;;;;;9.02;54.48;100138.44;5036188;28;20060;-65
2023/04/07 06:33:30;;;;;;;12.10;2.80;;;;;;;9.25;54.15;100151.59;5046416;28;20369;-65
2023/04/07 06:35:55;;;;;;;9.93;2.17;;;;;;;9.42;53.96;100146.31;5041375;28;20088;-65
2023/04/07 06:38:21;;;;;;;8.70;2.43;;;;;;;9.53;53.42;100146.31;5039783;28;20108;-65
2023/04/07 06:40:47;;;;;;;6.93;2.17;;;;;;;9.57;53.35;100152.44;5039683;28;20603;-66
2023/04/07 06:43:12;;;;;;;7.77;2.27;;;;;;;9.63;53.54;100147.16;5040049;28;20030;-65
2023/04/07 06:45:37;;;;;;;9.90;2.40;;;;;;;9.62;53.41;100146.28;5039726;28;20029;-65
2023/04/07 06:48:03;;;;;;;6.95;2.13;;;;;;;9.56;53.79;100150.69;5039818;28;20037;-65
2023/04/07 06:50:28;;;;;;;8.83;2.23;;;;;;;9.54;53.99;100152.47;5039755;28;20033;-65
2023/04/07 06:52:54;;;;;;;8.47;3.03;;;;;;;9.61;53.92;100159.44;5039654;28;20029;-65
2023/04/07 06:55:19;;;;;;;8.73;2.47;;;;;;;9.68;53.85;100166.44;5039374;28;20029;-65
2023/04/07 06:57:45;;;;;;;7.17;2.33;;;;;;;9.72;53.79;100165.53;5039477;28;20488;-65
2023/04/07 07:00:10;;;;;;;6.70;1.95;;;;;;;9.83;53.90;100162.03;5039768;28;20057;-66
2023/04/07 07:02:36;;;;;;;9.57;2.50;;;;;;;9.96;53.88;100165.50;5039746;28;20037;-65
2023/04/07 07:05:03;;;;;;;9.20;2.40;;;;;;;10.01;53.74;100159.34;5039318;28;20067;-65
2023/04/07 07:07:29;;;;;;;7.50;2.30;;;;;;;10.04;53.79;100158.44;5039483;28;20064;-65
2023/04/07 07:09:54;;;;;;;9.25;2.45;;;;;;;10.11;53.71;100164.56;5037506;28;20021;-65
2023/04/07 07:12:20;;;;;;;7.77;2.37;;;;;;;10.31;53.42;100160.09;5038079;28;20436;-66
2023/04/07 07:14:46;;;;;;;10.13;2.33;;;;;;;10.40;53.21;100160.91;5037935;28;20276;-66
2023/04/07 07:17:12;;;;;;;7.13;2.17;;;;;;;10.42;52.88;100161.81;5039362;28;20020;-65
2023/04/07 07:19:37;;;;;;;8.98;2.88;;;;;;;10.42;53.17;100159.19;5038852;28;20033;-65
2023/04/07 07:22:03;;;;;;;7.82;2.30;;;;;;;10.39;53.42;100153.91;5039076;28;20025;-65
2023/04/07 07:24:29;;;;;;;6.87;2.43;;;;;;;10.37;53.31;100155.69;5037511;28;20778;-66
2023/04/07 07:26:56;;;;;;;8.77;2.60;;;;;;;10.46;53.07;100163.53;5039302;28;20052;-65
2023/04/07 07:29:21;;;;;;;8.98;2.67;;;;;;;10.58;53.37;100160.88;5041863;28;20021;-63
2023/04/07 07:31:47;;;;;;;9.50;2.80;;;;;;;10.66;53.18;100154.66;5059025;28;20029;-66
2023/04/07 07:34:12;;;;;;;9.25;2.58;;;;;;;10.95;53.34;100157.13;5058757;28;20021;-66
2023/04/07 07:36:37;;;;;;;8.57;2.20;;;;;;;11.25;52.68;100159.53;5039585;28;20163;-66
2023/04/07 07:39:04;;;;;;;10.87;2.77;;;;;;;11.42;52.01;100149.69;5037168;28;20025;-66
2023/04/07 07:41:29;;;;;;;10.82;2.30;;;;;;;11.63;51.81;100147.72;5038835;28;20025;-65
2023/04/07 07:43:55;;;;;;;6.47;2.37;;;;;;;11.87;51.39;100150.97;5038592;28;20083;-66
2023/04/07 07:46:22;;;;;;;8.27;2.43;;;;;;;12.09;51.26;100148.13;5037539;28;20036;-65
2023/04/07 07:48:47;;;;;;;7.95;2.13;;;;;;;12.28;50.63;100147.00;5037861;28;20041;-63
2023/04/07 07:51:13;;;;;;;7.33;2.50;;;;;;;12.43;50.50;100147.72;5038638;28;20103;-65
2023/04/07 07:53:38;;;;;;;7.15;2.50;;;;;;;12.56;50.32;100149.28;5038165;28;20024;-65
2023/04/07 07:56:03;;;;;;;8.97;2.50;;;;;;;12.71;49.76;100145.53;5038652;28;20029;-66
2023/04/07 07:58:29;;;;;;;10.57;2.60;;;;;;;12.87;49.76;100145.31;5070351;28;20101;-64
2023/04/07 08:00:54;;;;;;;7.97;2.80;;;;;;;13.00;49.28;100146.84;5038569;28;20022;-64
2023/04/07 08:03:21;;;;;;;7.23;2.70;;;;;;;13.09;49.01;100144.97;5038446;28;20025;-64
2023/04/07 08:05:47;;;;;;;6.95;2.28;;;;;;;13.24;49.31;100146.47;5038486;28;20461;-64
2023/04/07 08:08:13;;;;;;;7.22;2.63;;;;;;;13.54;48.86;100149.50;5038007;28;20096;-64
2023/04/07 08:10:38;;;;;;;6.87;2.23;;;;;;;13.87;48.29;100145.34;5038200;28;20518;-64
2023/04/07 08:13:04;;;;;;;6.70;2.40;;;;;;;14.28;47.57;100140.09;5038431;28;20032;-64
2023/04/07 08:15:29;;;;;;;6.67;2.07;;;;;;;14.66;46.89;100140.16;5038133;28;20291;-64
2023/04/07 08:17:55;;;;;;;7.17;2.40;;;;;;;15.10;45.87;100134.75;5037942;28;20033;-64
2023/04/07 08:20:21;;;;;;;9.65;2.80;;;;;;;15.35;44.94;100142.09;5038324;28;20032;-64
2023/04/07 08:22:47;;;;;;;7.13;2.20;;;;;;;15.54;45.07;100130.97;5037732;28;20025;-64
2023/04/07 08:25:13;;;;;;;6.53;1.97;;;;;;;15.77;44.86;100139.16;5047161;28;20025;-64
2023/04/07 08:27:38;;;;;;;7.18;2.28;;;;;;;16.02;44.85;100135.84;5054717;28;20366;-65
2023/04/07 08:30:07;;;;;;;7.93;2.33;;;;;;;16.22;44.13;100137.06;5037760;28;20036;-64
2023/04/07 08:32:41;;;;;;;8.88;2.35;;;;;;;16.32;44.40;100135.88;5037776;28;20059;-65
2023/04/07 08:35:06;;;;;;;5.72;2.30;;;;;;;16.41;43.95;100131.19;5037807;28;20033;-64
2023/04/07 08:37:33;;;;;;;8.03;2.67;;;;;;;16.41;44.07;100131.19;5055340;28;20700;-65
2023/04/07 08:40:00;;;;;;;7.35;2.50;;;;;;;16.41;43.86;100132.09;5057470;28;20017;-65
2023/04/07 08:42:31;;;;;;;7.20;2.42;;;;;;;16.44;43.81;100131.97;5040712;28;20049;-64
2023/04/07 08:45:01;;;;;;;7.95;2.30;;;;;;;16.54;43.66;100137.88;5037770;28;20029;-64
2023/04/07 08:47:29;;;;;;;7.47;2.50;;;;;;;16.61;43.70;100133.22;5037429;28;20029;-64
2023/04/07 08:49:58;;;;;;;7.23;2.40;;;;;;;16.72;43.70;100136.44;5037652;28;20374;-64
2023/04/07 08:52:33;;;;;;;8.85;2.88;;;;;;;16.84;42.68;100137.84;5037582;28;20032;-64
2023/04/07 08:55:01;;;;;;;7.28;2.58;;;;;;;16.78;42.67;100136.22;5037170;28;20082;-64
2023/04/07 08:57:29;;;;;;;9.38;2.42;;;;;;;16.72;42.93;100136.44;5035881;28;20029;-65
2023/04/07 08:59:56;;;;;;;7.85;2.67;;;;;;;16.75;42.94;100130.13;5037243;28;20163;-64
2023/04/07 09:02:22;;;;;;;7.87;2.40;;;;;;;16.83;43.32;100135.22;5037504;28;20021;-64
2023/04/07 09:04:48;;;;;;;8.05;2.25;;;;;;;16.97;43.04;100134.75;5037075;28;20052;-65
2023/04/07 09:07:13;;;;;;;8.20;2.40;;;;;;;17.03;42.84;100126.63;5037425;28;20029;-65
2023/04/07 09:09:39;;;;;;;6.83;2.37;;;;;;;17.18;42.82;100126.09;5036729;28;20014;-64
2023/04/07 09:12:05;;;;;;;9.20;2.58;;;;;;;17.25;42.54;100123.25;5037101;28;20518;-65
2023/04/07 09:14:30;;;;;;;10.00;2.70;;;;;;;17.35;42.76;100120.19;5037079;28;20099;-65
2023/04/07 09:16:56;;;;;;;9.33;3.23;;;;;;;17.44;41.75;100123.47;5037118;28;20477;-64
2023/04/07 09:19:25;;;;;;;7.57;2.73;;;;;;;17.38;42.17;100129.03;5035639;28;20030;-65
2023/04/07 09:21:52;;;;;;;8.10;2.63;;;;;;;17.48;42.01;100119.78;5036622;28;20087;-64
2023/04/07 09:24:25;;;;;;;6.63;2.40;;;;;;;17.55;42.02;100109.78;5036822;28;20040;-65
2023/04/07 09:27:07;;;;;;;7.72;2.40;;;;;;;17.61;42.09;100109.56;5037005;28;20037;-65
2023/04/07 09:29:33;;;;;;;7.90;2.30;;;;;;;17.82;41.79;100107.06;5036823;28;20100;-64
2023/04/07 09:31:58;;;;;;;6.77;2.60;;;;;;;17.96;41.15;100110.03;5036881;28;20021;-64
2023/04/07 09:34:28;;;;;;;9.10;2.70;;;;;;;17.97;41.20;100102.94;5036685;28;20021;-64
2023/04/07 09:36:55;;;;;;;5.70;2.35;;;;;;;18.09;41.19;100105.19;5049147;28;20028;-65
2023/04/07 09:39:21;;;;;;;8.52;2.30;;;;;;;18.30;41.10;100100.81;5056293;28;20551;-65
2023/04/07 09:41:47;;;;;;;9.70;2.70;;;;;;;18.55;40.96;100096.31;5046507;28;20021;-64
2023/04/07 09:44:12;;;;;;;5.85;2.33;;;;;;;18.69;41.18;100093.06;5036675;28;20040;-65
2023/04/07 09:46:52;;;;;;;8.57;2.23;;;;;;;18.79;40.47;100092.63;5036933;28;20030;-65
2023/04/07 09:49:19;;;;;;;6.85;2.30;;;;;;;19.06;40.72;100091.59;5036805;28;20024;-65
2023/04/07 09:51:53;;;;;;;6.85;2.33;;;;;;;19.21;40.47;100085.63;5036667;28;20033;-65
2023/04/07 09:54:36;;;;;;;6.63;2.10;;;;;;;19.34;39.37;100085.06;5036256;28;20029;-65
2023/04/07 09:57:03;;;;;;;7.57;2.13;;;;;;;19.41;39.28;100086.56;5036812;28;20025;-65
2023/04/07 09:59:30;;;;;;;6.10;1.73;;;;;;;19.46;39.14;100083.66;5036414;28;20397;-65
2023/04/07 10:01:56;;;;;;;4.50;2.10;;;;;;;19.47;39.00;100075.59;5036832;28;20029;-65
2023/04/07 10:04:23;;;;;;;5.72;1.50;;;;;;;19.62;39.12;100068.69;5036615;28;20040;-65
2023/04/07 10:06:49;;;;;;;6.77;1.90;;;;;;;19.81;38.59;100075.88;5035130;28;20033;-65
2023/04/07 10:09:16;;;;;;;6.47;1.88;;;;;;;19.94;38.58;100076.22;5036223;28;20148;-65
2023/04/07 10:11:43;;;;;;;5.88;2.05;;;;;;;20.03;38.17;100073.09;5037613;28;20049;-65
2023/04/07 10:14:10;;;;;;;5.40;2.08;;;;;;;20.03;37.57;100070.44;5040552;28;21003;-65
2023/04/07 10:16:41;;;;;;;5.00;1.70;;;;;;;20.01;38.01;100058.94;5039963;28;20124;-65
2023/04/07 10:19:07;;;;;;;5.50;1.70;;;;;;;20.16;37.84;100056.50;5053062;28;20028;-65
2023/04/07 10:21:38;;;;;;;8.50;2.17;;;;;;;20.12;37.14;100049.53;5042906;28;20026;-65
2023/04/07 10:24:08;;;;;;;8.55;1.88;;;;;;;20.06;37.49;100051.56;5040096;28;20071;-65
2023/04/07 10:26:35;;;;;;;5.10;1.92;;;;;;;20.10;37.40;100049.63;5040457;28;20025;-64
2023/04/07 10:29:09;;;;;;;5.15;1.70;;;;;;;20.23;37.80;100041.88;5038614;28;20013;-65
2023/04/07 10:31:36;;;;;;;4.90;1.70;;;;;;;20.51;37.10;100032.53;5040073;28;20032;-65
2023/04/07 10:34:02;;;;;;;5.07;1.50;;;;;;;20.76;36.60;100033.97;5040192;28;20021;-65
2023/04/07 10:36:28;;;;;;;6.28;1.80;;;;;;;20.86;35.83;100037.97;5048252;28;20029;-65
2023/04/07 10:39:08;;;;;;;7.07;1.83;;;;;;;20.69;35.75;100028.06;5059734;28;20017;-65
2023/04/07 10:41:40;;;;;;;6.50;1.70;;;;;;;20.84;36.18;100031.78;5051341;28;20029;-65
2023/04/07 10:44:07;;;;;;;5.68;1.63;;;;;;;21.02;35.64;100023.78;5071878;28;20386;-65
2023/04/07 10:47:02;;;;;;;6.93;1.63;;;;;;;20.97;35.50;100028.50;5039915;28;20556;-65
2023/04/07 10:49:27;;;;;;;5.00;1.35;;;;;;;21.19;35.59;100021.09;5039895;28;20010;-65
2023/04/07 10:52:11;;;;;;;5.75;1.40;;;;;;;21.26;35.19;100016.28;5039794;28;20025;-65
2023/04/07 10:54:38;;;;;;;6.50;1.40;;;;;;;21.49;34.30;100012.38;5039552;28;20491;-65
2023/04/07 10:57:10;;;;;;;5.53;1.60;;;;;;;21.50;34.74;100008.75;5039525;28;20044;-65
2023/04/07 10:59:37;;;;;;;4.07;1.20;;;;;;;21.57;34.71;100006.59;5039473;28;20057;-65
2023/04/07 11:02:12;;;;;;;4.45;1.50;;;;;;;21.68;34.84;100003.38;5039743;28;20070;-65
2023/04/07 11:04:39;;;;;;;6.18;1.50;;;;;;;21.95;34.26;99994.75;5039548;28;20052;-65
2023/04/07 11:07:05;;;;;;;5.60;1.70;;;;;;;22.16;34.26;99994.47;5039566;28;20033;-65
2023/04/07 11:09:30;;;;;;;5.25;1.63;;;;;;;22.31;34.02;99990.94;5039070;28;20024;-65
2023/04/07 11:11:56;;;;;;;4.87;1.40;;;;;;;22.45;33.64;99994.63;5039435;28;20058;-65
2023/04/07 11:14:30;;;;;;;5.25;1.50;;;;;;;22.45;33.33;99994.63;5052748;28;20127;-65
2023/04/07 11:16:57;;;;;;;4.65;1.35;;;;;;;22.47;33.82;99988.25;5051428;28;20047;-65
2023/04/07 11:19:22;;;;;;;5.28;1.70;;;;;;;22.45;33.45;99983.88;5039090;28;20503;-65
2023/04/07 11:21:48;;;;;;;6.20;1.50;;;;;;;22.45;32.97;99986.56;5038927;28;20609;-65
2023/04/07 11:24:40;;;;;;;6.07;1.80;;;;;;;22.26;31.35;99979.56;5037532;28;20032;-65
2023/04/07 11:27:11;;;;;;;4.97;1.30;;;;;;;22.17;32.10;99969.41;5035702;28;20044;-65